sensor_id;sensor_type;location;lat;lon;timestamp;P1;durP1;ratioP1;P2;durP2;ratioP2
16189;SDS011;41754;51.498;7.540;2023-11-21T00:00:58;19.53;;;13.70;;
16189;SDS011;41754;51.498;7.540;2023-11-21T00:03:27;23.27;;;14.93;;
16189;SDS011;41754;51.498;7.540;2023-11-21T00:05:57;24.40;;;13.63;;
16189;SDS011;41754;51.498;7.540;2023-11-21T00:08:25;19.53;;;14.13;;
16189;SDS011;41754;51.498;7.540;2023-11-21T00:10:53;17.93;;;13.23;;
16189;SDS011;41754;51.498;7.540;2023-11-21T00:13:22;24.13;;;13.93;;
16189;SDS011;41754;51.498;7.540;2023-11-21T00:15:50;18.17;;;13.03;;
16189;SDS011;41754;51.498;7.540;2023-11-21T00:18:18;19.40;;;13.07;;
16189;SDS011;41754;51.498;7.540;2023-11-21T00:20:46;16.47;;;12.17;;
16189;SDS011;41754;51.498;7.540;2023-11-21T00:23:15;17.17;;;11.70;;
16189;SDS011;41754;51.498;7.540;2023-11-21T00:25:44;17.70;;;12.90;;
16189;SDS011;41754;51.498;7.540;2023-11-21T00:28:12;16.00;;;11.73;;
16189;SDS011;41754;51.498;7.540;2023-11-21T00:30:40;16.30;;;12.13;;
16189;SDS011;41754;51.498;7.540;2023-11-21T00:33:08;15.50;;;11.13;;
16189;SDS011;41754;51.498;7.540;2023-11-21T00:35:36;13.97;;;10.37;;
16189;SDS011;41754;51.498;7.540;2023-11-21T00:38:03;14.63;;;10.33;;
16189;SDS011;41754;51.498;7.540;2023-11-21T00:40:33;12.43;;;10.00;;
16189;SDS011;41754;51.498;7.540;2023-11-21T00:43:01;13.70;;;10.37;;
16189;SDS011;41754;51.498;7.540;2023-11-21T00:45:31;12.40;;;9.70;;
16189;SDS011;41754;51.498;7.540;2023-11-21T00:47:59;16.93;;;10.10;;
16189;SDS011;41754;51.498;7.540;2023-11-21T00:50:27;17.57;;;9.60;;
16189;SDS011;41754;51.498;7.540;2023-11-21T00:52:55;14.95;;;9.85;;
16189;SDS011;41754;51.498;7.540;2023-11-21T00:55:23;12.80;;;9.90;;
16189;SDS011;41754;51.498;7.540;2023-11-21T00:57:54;14.87;;;10.00;;
16189;SDS011;41754;51.498;7.540;2023-11-21T01:00:22;13.37;;;9.83;;
16189;SDS011;41754;51.498;7.540;2023-11-21T01:02:49;12.07;;;9.47;;
16189;SDS011;41754;51.498;7.540;2023-11-21T01:05:18;13.15;;;9.32;;
16189;SDS011;41754;51.498;7.540;2023-11-21T01:07:47;14.20;;;10.27;;
16189;SDS011;41754;51.498;7.540;2023-11-21T01:10:15;15.38;;;10.02;;
16189;SDS011;41754;51.498;7.540;2023-11-21T01:12:44;11.47;;;9.10;;
16189;SDS011;41754;51.498;7.540;2023-11-21T01:15:13;15.50;;;9.37;;
16189;SDS011;41754;51.498;7.540;2023-11-21T01:17:41;14.70;;;9.17;;
16189;SDS011;41754;51.498;7.540;2023-11-21T01:20:10;12.40;;;9.45;;
16189;SDS011;41754;51.498;7.540;2023-11-21T01:22:40;13.45;;;9.77;;
16189;SDS011;41754;51.498;7.540;2023-11-21T01:25:08;14.35;;;9.82;;
16189;SDS011;41754;51.498;7.540;2023-11-21T01:27:37;12.85;;;8.63;;
16189;SDS011;41754;51.498;7.540;2023-11-21T01:30:05;18.77;;;10.20;;
16189;SDS011;41754;51.498;7.540;2023-11-21T01:32:37;14.77;;;9.83;;
16189;SDS011;41754;51.498;7.540;2023-11-21T01:35:06;12.15;;;9.38;;
16189;SDS011;41754;51.498;7.540;2023-11-21T01:37:34;16.88;;;9.55;;
16189;SDS011;41754;51.498;7.540;2023-11-21T01:40:01;13.73;;;9.47;;
16189;SDS011;41754;51.498;7.540;2023-11-21T01:42:32;12.80;;;8.48;;
16189;SDS011;41754;51.498;7.540;2023-11-21T01:45:01;11.68;;;9.00;;
16189;SDS011;41754;51.498;7.540;2023-11-21T01:47:31;12.23;;;8.80;;
16189;SDS011;41754;51.498;7.540;2023-11-21T01:50:01;12.50;;;9.70;;
16189;SDS011;41754;51.498;7.540;2023-11-21T01:52:30;15.70;;;8.77;;
16189;SDS011;41754;51.498;7.540;2023-11-21T01:54:58;15.30;;;9.27;;
16189;SDS011;41754;51.498;7.540;2023-11-21T01:57:27;11.23;;;8.20;;
16189;SDS011;41754;51.498;7.540;2023-11-21T01:59:56;10.77;;;8.27;;
16189;SDS011;41754;51.498;7.540;2023-11-21T02:02:26;13.90;;;8.75;;
16189;SDS011;41754;51.498;7.540;2023-11-21T02:04:54;15.07;;;9.20;;
16189;SDS011;41754;51.498;7.540;2023-11-21T02:07:23;14.73;;;9.18;;
16189;SDS011;41754;51.498;7.540;2023-11-21T02:09:51;12.95;;;8.85;;
16189;SDS011;41754;51.498;7.540;2023-11-21T02:12:19;16.13;;;8.45;;
16189;SDS011;41754;51.498;7.540;2023-11-21T02:14:47;12.45;;;9.05;;
16189;SDS011;41754;51.498;7.540;2023-11-21T02:17:15;15.13;;;9.10;;
16189;SDS011;41754;51.498;7.540;2023-11-21T02:19:44;13.30;;;8.98;;
16189;SDS011;41754;51.498;7.540;2023-11-21T02:22:13;14.43;;;9.05;;
16189;SDS011;41754;51.498;7.540;2023-11-21T02:24:45;12.13;;;8.70;;
16189;SDS011;41754;51.498;7.540;2023-11-21T02:27:13;12.27;;;9.57;;
16189;SDS011;41754;51.498;7.540;2023-11-21T02:29:43;16.92;;;10.30;;
16189;SDS011;41754;51.498;7.540;2023-11-21T02:32:11;13.40;;;9.23;;
16189;SDS011;41754;51.498;7.540;2023-11-21T02:34:39;13.25;;;9.25;;
16189;SDS011;41754;51.498;7.540;2023-11-21T02:37:08;14.70;;;9.73;;
16189;SDS011;41754;51.498;7.540;2023-11-21T02:39:38;14.40;;;9.27;;
16189;SDS011;41754;51.498;7.540;2023-11-21T02:42:07;14.18;;;9.38;;
16189;SDS011;41754;51.498;7.540;2023-11-21T02:44:35;14.68;;;9.80;;
16189;SDS011;41754;51.498;7.540;2023-11-21T02:47:03;35.92;;;31.20;;
16189;SDS011;41754;51.498;7.540;2023-11-21T02:49:32;17.60;;;11.07;;
16189;SDS011;41754;51.498;7.540;2023-11-21T02:52:02;16.15;;;10.63;;
16189;SDS011;41754;51.498;7.540;2023-11-21T02:54:30;17.23;;;11.10;;
16189;SDS011;41754;51.498;7.540;2023-11-21T02:57:00;13.85;;;9.95;;
16189;SDS011;41754;51.498;7.540;2023-11-21T02:59:30;15.13;;;10.65;;
16189;SDS011;41754;51.498;7.540;2023-11-21T03:01:58;18.70;;;10.40;;
16189;SDS011;41754;51.498;7.540;2023-11-21T03:04:26;15.55;;;10.85;;
16189;SDS011;41754;51.498;7.540;2023-11-21T03:06:54;17.83;;;11.18;;
16189;SDS011;41754;51.498;7.540;2023-11-21T03:09:21;16.55;;;11.25;;
16189;SDS011;41754;51.498;7.540;2023-11-21T03:11:49;16.40;;;10.90;;
16189;SDS011;41754;51.498;7.540;2023-11-21T03:14:17;17.65;;;10.82;;
16189;SDS011;41754;51.498;7.540;2023-11-21T03:16:47;21.05;;;10.65;;
16189;SDS011;41754;51.498;7.540;2023-11-21T03:19:15;16.15;;;10.77;;
16189;SDS011;41754;51.498;7.540;2023-11-21T03:21:43;16.58;;;9.80;;
16189;SDS011;41754;51.498;7.540;2023-11-21T03:24:11;16.50;;;10.67;;
16189;SDS011;41754;51.498;7.540;2023-11-21T03:26:39;13.68;;;10.25;;
16189;SDS011;41754;51.498;7.540;2023-11-21T03:29:07;19.58;;;11.20;;
16189;SDS011;41754;51.498;7.540;2023-11-21T03:31:35;15.88;;;10.85;;
16189;SDS011;41754;51.498;7.540;2023-11-21T03:34:04;14.50;;;10.50;;
16189;SDS011;41754;51.498;7.540;2023-11-21T03:36:32;15.30;;;10.32;;
16189;SDS011;41754;51.498;7.540;2023-11-21T03:39:00;20.33;;;11.13;;
16189;SDS011;41754;51.498;7.540;2023-11-21T03:41:28;14.00;;;10.65;;
16189;SDS011;41754;51.498;7.540;2023-11-21T03:43:56;16.10;;;11.20;;
16189;SDS011;41754;51.498;7.540;2023-11-21T03:46:24;17.55;;;12.05;;
16189;SDS011;41754;51.498;7.540;2023-11-21T03:48:52;16.20;;;11.40;;
16189;SDS011;41754;51.498;7.540;2023-11-21T03:51:23;17.23;;;11.07;;
16189;SDS011;41754;51.498;7.540;2023-11-21T03:53:51;17.73;;;10.25;;
16189;SDS011;41754;51.498;7.540;2023-11-21T03:56:19;14.30;;;10.32;;
16189;SDS011;41754;51.498;7.540;2023-11-21T03:58:48;17.42;;;10.98;;
16189;SDS011;41754;51.498;7.540;2023-11-21T04:01:20;16.40;;;10.57;;
16189;SDS011;41754;51.498;7.540;2023-11-21T04:03:49;18.00;;;11.75;;
16189;SDS011;41754;51.498;7.540;2023-11-21T04:06:18;16.77;;;11.00;;
16189;SDS011;41754;51.498;7.540;2023-11-21T04:08:47;15.43;;;11.48;;
16189;SDS011;41754;51.498;7.540;2023-11-21T04:11:15;17.17;;;11.10;;
16189;SDS011;41754;51.498;7.540;2023-11-21T04:13:43;17.58;;;10.73;;
16189;SDS011;41754;51.498;7.540;2023-11-21T04:16:12;14.60;;;10.38;;
16189;SDS011;41754;51.498;7.540;2023-11-21T04:18:40;18.77;;;11.18;;
16189;SDS011;41754;51.498;7.540;2023-11-21T04:21:08;17.98;;;10.98;;
16189;SDS011;41754;51.498;7.540;2023-11-21T04:23:35;18.90;;;11.50;;
16189;SDS011;41754;51.498;7.540;2023-11-21T04:26:05;16.83;;;11.25;;
16189;SDS011;41754;51.498;7.540;2023-11-21T04:28:32;20.40;;;11.80;;
16189;SDS011;41754;51.498;7.540;2023-11-21T04:31:01;16.48;;;11.25;;
16189;SDS011;41754;51.498;7.540;2023-11-21T04:33:29;20.35;;;13.07;;
16189;SDS011;41754;51.498;7.540;2023-11-21T04:35:57;16.02;;;11.82;;
16189;SDS011;41754;51.498;7.540;2023-11-21T04:38:25;20.73;;;12.77;;
16189;SDS011;41754;51.498;7.540;2023-11-21T04:40:53;21.65;;;13.85;;
16189;SDS011;41754;51.498;7.540;2023-11-21T04:43:22;34.85;;;26.40;;
16189;SDS011;41754;51.498;7.540;2023-11-21T04:45:50;39.30;;;27.35;;
16189;SDS011;41754;51.498;7.540;2023-11-21T04:48:18;34.30;;;23.95;;
16189;SDS011;41754;51.498;7.540;2023-11-21T04:50:46;20.83;;;14.73;;
16189;SDS011;41754;51.498;7.540;2023-11-21T04:53:14;20.67;;;12.38;;
16189;SDS011;41754;51.498;7.540;2023-11-21T04:55:42;19.85;;;12.35;;
16189;SDS011;41754;51.498;7.540;2023-11-21T04:58:10;18.88;;;11.98;;
16189;SDS011;41754;51.498;7.540;2023-11-21T05:00:40;16.80;;;12.50;;
16189;SDS011;41754;51.498;7.540;2023-11-21T05:03:08;18.35;;;12.63;;
16189;SDS011;41754;51.498;7.540;2023-11-21T05:05:37;19.90;;;13.30;;
16189;SDS011;41754;51.498;7.540;2023-11-21T05:08:04;20.10;;;14.13;;
16189;SDS011;41754;51.498;7.540;2023-11-21T05:10:32;20.98;;;14.05;;
16189;SDS011;41754;51.498;7.540;2023-11-21T05:13:00;20.40;;;13.30;;
16189;SDS011;41754;51.498;7.540;2023-11-21T05:15:28;25.67;;;16.40;;
16189;SDS011;41754;51.498;7.540;2023-11-21T05:17:58;24.27;;;18.40;;
16189;SDS011;41754;51.498;7.540;2023-11-21T05:20:26;28.73;;;19.27;;
16189;SDS011;41754;51.498;7.540;2023-11-21T05:22:53;36.45;;;24.95;;
16189;SDS011;41754;51.498;7.540;2023-11-21T05:25:21;27.95;;;20.00;;
16189;SDS011;41754;51.498;7.540;2023-11-21T05:27:49;31.40;;;19.30;;
16189;SDS011;41754;51.498;7.540;2023-11-21T05:30:16;20.67;;;14.63;;
16189;SDS011;41754;51.498;7.540;2023-11-21T05:32:44;21.10;;;14.32;;
16189;SDS011;41754;51.498;7.540;2023-11-21T05:35:14;23.42;;;14.70;;
16189;SDS011;41754;51.498;7.540;2023-11-21T05:37:44;20.08;;;15.20;;
16189;SDS011;41754;51.498;7.540;2023-11-21T05:40:12;22.50;;;15.20;;
16189;SDS011;41754;51.498;7.540;2023-11-21T05:42:41;24.83;;;15.80;;
16189;SDS011;41754;51.498;7.540;2023-11-21T05:45:09;17.70;;;13.77;;
16189;SDS011;41754;51.498;7.540;2023-11-21T05:47:39;18.80;;;13.05;;
16189;SDS011;41754;51.498;7.540;2023-11-21T05:50:08;22.05;;;13.77;;
16189;SDS011;41754;51.498;7.540;2023-11-21T05:52:43;17.85;;;13.82;;
16189;SDS011;41754;51.498;7.540;2023-11-21T05:55:12;18.80;;;12.82;;
16189;SDS011;41754;51.498;7.540;2023-11-21T05:57:41;18.75;;;12.57;;
16189;SDS011;41754;51.498;7.540;2023-11-21T06:00:10;19.27;;;12.10;;
16189;SDS011;41754;51.498;7.540;2023-11-21T06:02:44;19.95;;;13.13;;
16189;SDS011;41754;51.498;7.540;2023-11-21T06:05:12;14.80;;;12.40;;
16189;SDS011;41754;51.498;7.540;2023-11-21T06:07:40;22.58;;;13.80;;
16189;SDS011;41754;51.498;7.540;2023-11-21T06:10:10;20.40;;;14.27;;
16189;SDS011;41754;51.498;7.540;2023-11-21T06:12:40;18.73;;;13.93;;
16189;SDS011;41754;51.498;7.540;2023-11-21T06:15:09;23.08;;;13.25;;
16189;SDS011;41754;51.498;7.540;2023-11-21T06:17:40;20.35;;;13.48;;
16189;SDS011;41754;51.498;7.540;2023-11-21T06:20:08;22.30;;;14.88;;
16189;SDS011;41754;51.498;7.540;2023-11-21T06:22:41;19.80;;;15.10;;
16189;SDS011;41754;51.498;7.540;2023-11-21T06:25:12;22.58;;;15.00;;
16189;SDS011;41754;51.498;7.540;2023-11-21T06:27:41;21.88;;;14.68;;
16189;SDS011;41754;51.498;7.540;2023-11-21T06:30:11;22.60;;;14.88;;
16189;SDS011;41754;51.498;7.540;2023-11-21T06:32:40;21.13;;;14.95;;
16189;SDS011;41754;51.498;7.540;2023-11-21T06:35:12;25.95;;;15.63;;
16189;SDS011;41754;51.498;7.540;2023-11-21T06:37:42;19.98;;;14.80;;
16189;SDS011;41754;51.498;7.540;2023-11-21T06:40:15;19.80;;;14.35;;
16189;SDS011;41754;51.498;7.540;2023-11-21T06:42:44;22.13;;;14.48;;
16189;SDS011;41754;51.498;7.540;2023-11-21T06:45:13;19.13;;;14.57;;
16189;SDS011;41754;51.498;7.540;2023-11-21T06:47:41;24.57;;;15.30;;
16189;SDS011;41754;51.498;7.540;2023-11-21T06:50:10;22.58;;;15.07;;
16189;SDS011;41754;51.498;7.540;2023-11-21T06:52:38;19.87;;;14.27;;
16189;SDS011;41754;51.498;7.540;2023-11-21T06:55:06;24.53;;;14.90;;
16189;SDS011;41754;51.498;7.540;2023-11-21T06:57:37;20.57;;;15.40;;
16189;SDS011;41754;51.498;7.540;2023-11-21T07:00:06;23.97;;;15.90;;
16189;SDS011;41754;51.498;7.540;2023-11-21T07:02:36;22.57;;;15.87;;
16189;SDS011;41754;51.498;7.540;2023-11-21T07:05:05;21.63;;;15.40;;
16189;SDS011;41754;51.498;7.540;2023-11-21T07:07:33;24.30;;;15.30;;
16189;SDS011;41754;51.498;7.540;2023-11-21T07:10:02;21.30;;;14.97;;
16189;SDS011;41754;51.498;7.540;2023-11-21T07:12:32;19.85;;;14.52;;
16189;SDS011;41754;51.498;7.540;2023-11-21T07:15:01;22.45;;;14.52;;
16189;SDS011;41754;51.498;7.540;2023-11-21T07:17:31;21.53;;;14.73;;
16189;SDS011;41754;51.498;7.540;2023-11-21T07:20:00;18.67;;;14.10;;
16189;SDS011;41754;51.498;7.540;2023-11-21T07:22:29;25.17;;;14.93;;
16189;SDS011;41754;51.498;7.540;2023-11-21T07:24:57;19.80;;;13.32;;
16189;SDS011;41754;51.498;7.540;2023-11-21T07:27:25;17.57;;;13.87;;
16189;SDS011;41754;51.498;7.540;2023-11-21T07:29:53;18.30;;;14.43;;
16189;SDS011;41754;51.498;7.540;2023-11-21T07:32:22;19.43;;;14.47;;
16189;SDS011;41754;51.498;7.540;2023-11-21T07:34:50;23.25;;;14.63;;
16189;SDS011;41754;51.498;7.540;2023-11-21T07:37:17;19.97;;;13.27;;
16189;SDS011;41754;51.498;7.540;2023-11-21T07:39:46;19.15;;;13.48;;
16189;SDS011;41754;51.498;7.540;2023-11-21T07:42:13;16.63;;;13.43;;
16189;SDS011;41754;51.498;7.540;2023-11-21T07:44:41;19.08;;;13.00;;
16189;SDS011;41754;51.498;7.540;2023-11-21T07:47:09;19.83;;;12.60;;
16189;SDS011;41754;51.498;7.540;2023-11-21T07:49:38;22.52;;;13.45;;
16189;SDS011;41754;51.498;7.540;2023-11-21T07:52:09;16.58;;;11.93;;
16189;SDS011;41754;51.498;7.540;2023-11-21T07:54:37;22.02;;;13.07;;
16189;SDS011;41754;51.498;7.540;2023-11-21T07:57:04;18.98;;;13.38;;
16189;SDS011;41754;51.498;7.540;2023-11-21T07:59:32;22.55;;;14.30;;
16189;SDS011;41754;51.498;7.540;2023-11-21T08:02:00;23.25;;;14.95;;
16189;SDS011;41754;51.498;7.540;2023-11-21T08:04:28;21.98;;;14.43;;
16189;SDS011;41754;51.498;7.540;2023-11-21T08:07:02;20.15;;;14.55;;
16189;SDS011;41754;51.498;7.540;2023-11-21T08:09:30;22.55;;;14.75;;
16189;SDS011;41754;51.498;7.540;2023-11-21T08:11:59;22.30;;;14.18;;
16189;SDS011;41754;51.498;7.540;2023-11-21T08:14:28;21.60;;;14.25;;
16189;SDS011;41754;51.498;7.540;2023-11-21T08:16:56;22.58;;;14.82;;
16189;SDS011;41754;51.498;7.540;2023-11-21T08:19:25;18.60;;;13.65;;
16189;SDS011;41754;51.498;7.540;2023-11-21T08:21:53;25.05;;;15.30;;
16189;SDS011;41754;51.498;7.540;2023-11-21T08:24:23;23.23;;;14.52;;
16189;SDS011;41754;51.498;7.540;2023-11-21T08:26:51;23.98;;;15.32;;
16189;SDS011;41754;51.498;7.540;2023-11-21T08:29:19;23.85;;;15.10;;
16189;SDS011;41754;51.498;7.540;2023-11-21T08:31:47;22.23;;;15.95;;
16189;SDS011;41754;51.498;7.540;2023-11-21T08:34:15;27.10;;;16.98;;
16189;SDS011;41754;51.498;7.540;2023-11-21T08:36:42;24.45;;;16.98;;
16189;SDS011;41754;51.498;7.540;2023-11-21T08:39:11;23.05;;;15.98;;
16189;SDS011;41754;51.498;7.540;2023-11-21T08:41:41;24.45;;;16.00;;
16189;SDS011;41754;51.498;7.540;2023-11-21T08:44:08;29.05;;;17.55;;
16189;SDS011;41754;51.498;7.540;2023-11-21T08:46:37;25.10;;;15.85;;
16189;SDS011;41754;51.498;7.540;2023-11-21T08:49:06;26.05;;;15.95;;
16189;SDS011;41754;51.498;7.540;2023-11-21T08:51:34;25.88;;;16.58;;
16189;SDS011;41754;51.498;7.540;2023-11-21T08:54:01;22.45;;;15.20;;
16189;SDS011;41754;51.498;7.540;2023-11-21T08:56:31;26.80;;;15.73;;
16189;SDS011;41754;51.498;7.540;2023-11-21T08:59:00;28.98;;;16.10;;
16189;SDS011;41754;51.498;7.540;2023-11-21T09:01:29;26.58;;;15.98;;
16189;SDS011;41754;51.498;7.540;2023-11-21T09:03:58;29.52;;;16.40;;
16189;SDS011;41754;51.498;7.540;2023-11-21T09:06:25;28.65;;;16.52;;
16189;SDS011;41754;51.498;7.540;2023-11-21T09:08:53;25.65;;;16.92;;
16189;SDS011;41754;51.498;7.540;2023-11-21T09:11:21;29.73;;;16.48;;
16189;SDS011;41754;51.498;7.540;2023-11-21T09:13:53;28.42;;;17.13;;
16189;SDS011;41754;51.498;7.540;2023-11-21T09:16:23;28.27;;;17.10;;
16189;SDS011;41754;51.498;7.540;2023-11-21T09:18:51;24.90;;;15.25;;
16189;SDS011;41754;51.498;7.540;2023-11-21T09:21:18;27.80;;;16.05;;
16189;SDS011;41754;51.498;7.540;2023-11-21T09:23:46;26.70;;;15.82;;
16189;SDS011;41754;51.498;7.540;2023-11-21T09:26:15;28.30;;;15.70;;
16189;SDS011;41754;51.498;7.540;2023-11-21T09:28:43;22.60;;;15.73;;
16189;SDS011;41754;51.498;7.540;2023-11-21T09:31:13;26.23;;;16.05;;
16189;SDS011;41754;51.498;7.540;2023-11-21T09:33:43;24.95;;;16.02;;
16189;SDS011;41754;51.498;7.540;2023-11-21T09:36:11;28.92;;;16.30;;
16189;SDS011;41754;51.498;7.540;2023-11-21T09:38:41;28.10;;;16.50;;
16189;SDS011;41754;51.498;7.540;2023-11-21T09:41:13;28.23;;;17.27;;
16189;SDS011;41754;51.498;7.540;2023-11-21T09:43:48;28.25;;;16.58;;
16189;SDS011;41754;51.498;7.540;2023-11-21T09:46:22;31.45;;;18.30;;
16189;SDS011;41754;51.498;7.540;2023-11-21T09:48:53;34.50;;;19.00;;
16189;SDS011;41754;51.498;7.540;2023-11-21T09:51:22;42.63;;;21.10;;
16189;SDS011;41754;51.498;7.540;2023-11-21T09:53:56;38.08;;;22.38;;
16189;SDS011;41754;51.498;7.540;2023-11-21T09:56:27;42.90;;;22.55;;
16189;SDS011;41754;51.498;7.540;2023-11-21T09:58:56;44.63;;;24.17;;
16189;SDS011;41754;51.498;7.540;2023-11-21T10:01:25;45.42;;;25.10;;
16189;SDS011;41754;51.498;7.540;2023-11-21T10:03:56;44.10;;;23.33;;
16189;SDS011;41754;51.498;7.540;2023-11-21T10:06:24;45.72;;;24.58;;
16189;SDS011;41754;51.498;7.540;2023-11-21T10:08:54;51.10;;;25.05;;
16189;SDS011;41754;51.498;7.540;2023-11-21T10:11:23;39.42;;;23.52;;
16189;SDS011;41754;51.498;7.540;2023-11-21T10:13:52;43.53;;;24.00;;
16189;SDS011;41754;51.498;7.540;2023-11-21T10:16:23;37.15;;;23.45;;
16189;SDS011;41754;51.498;7.540;2023-11-21T10:18:53;45.70;;;23.15;;
16189;SDS011;41754;51.498;7.540;2023-11-21T10:21:38;38.35;;;23.52;;
16189;SDS011;41754;51.498;7.540;2023-11-21T10:24:07;39.08;;;24.08;;
16189;SDS011;41754;51.498;7.540;2023-11-21T10:26:35;40.13;;;22.65;;
16189;SDS011;41754;51.498;7.540;2023-11-21T10:29:18;41.58;;;22.83;;
16189;SDS011;41754;51.498;7.540;2023-11-21T10:31:48;40.92;;;24.70;;
16189;SDS011;41754;51.498;7.540;2023-11-21T10:34:18;41.20;;;23.90;;
16189;SDS011;41754;51.498;7.540;2023-11-21T10:36:49;40.72;;;24.50;;
16189;SDS011;41754;51.498;7.540;2023-11-21T10:39:17;40.42;;;23.58;;
16189;SDS011;41754;51.498;7.540;2023-11-21T10:41:46;42.13;;;23.98;;
16189;SDS011;41754;51.498;7.540;2023-11-21T10:44:15;43.90;;;24.30;;
16189;SDS011;41754;51.498;7.540;2023-11-21T10:46:48;38.20;;;23.60;;
16189;SDS011;41754;51.498;7.540;2023-11-21T10:49:17;44.13;;;24.40;;
16189;SDS011;41754;51.498;7.540;2023-11-21T10:51:46;39.95;;;23.05;;
16189;SDS011;41754;51.498;7.540;2023-11-21T10:54:18;43.25;;;24.52;;
16189;SDS011;41754;51.498;7.540;2023-11-21T10:56:48;40.78;;;24.88;;
16189;SDS011;41754;51.498;7.540;2023-11-21T10:59:18;39.78;;;24.98;;
16189;SDS011;41754;51.498;7.540;2023-11-21T11:01:47;43.67;;;22.95;;
16189;SDS011;41754;51.498;7.540;2023-11-21T11:04:18;39.45;;;22.75;;
16189;SDS011;41754;51.498;7.540;2023-11-21T11:06:47;35.95;;;22.65;;
16189;SDS011;41754;51.498;7.540;2023-11-21T11:09:24;34.60;;;21.67;;
16189;SDS011;41754;51.498;7.540;2023-11-21T11:11:52;38.20;;;21.55;;
16189;SDS011;41754;51.498;7.540;2023-11-21T11:14:20;38.13;;;21.85;;
16189;SDS011;41754;51.498;7.540;2023-11-21T11:16:53;36.30;;;20.70;;
16189;SDS011;41754;51.498;7.540;2023-11-21T11:19:21;35.55;;;21.00;;
16189;SDS011;41754;51.498;7.540;2023-11-21T11:21:51;40.50;;;23.10;;
16189;SDS011;41754;51.498;7.540;2023-11-21T11:24:36;39.33;;;21.73;;
16189;SDS011;41754;51.498;7.540;2023-11-21T11:27:20;37.85;;;23.00;;
16189;SDS011;41754;51.498;7.540;2023-11-21T11:29:56;35.65;;;22.73;;
16189;SDS011;41754;51.498;7.540;2023-11-21T11:32:39;39.97;;;24.73;;
16189;SDS011;41754;51.498;7.540;2023-11-21T11:35:17;43.38;;;25.85;;
16189;SDS011;41754;51.498;7.540;2023-11-21T11:37:52;43.38;;;26.27;;
16189;SDS011;41754;51.498;7.540;2023-11-21T11:40:25;47.60;;;26.63;;
16189;SDS011;41754;51.498;7.540;2023-11-21T11:43:05;48.35;;;28.40;;
16189;SDS011;41754;51.498;7.540;2023-11-21T11:45:34;44.55;;;27.27;;
16189;SDS011;41754;51.498;7.540;2023-11-21T11:48:07;43.45;;;25.05;;
16189;SDS011;41754;51.498;7.540;2023-11-21T11:50:42;33.45;;;22.15;;
16189;SDS011;41754;51.498;7.540;2023-11-21T11:53:33;39.50;;;23.25;;
16189;SDS011;41754;51.498;7.540;2023-11-21T11:56:23;38.33;;;24.02;;
16189;SDS011;41754;51.498;7.540;2023-11-21T11:58:53;34.05;;;22.33;;
16189;SDS011;41754;51.498;7.540;2023-11-21T12:01:22;35.47;;;22.20;;
16189;SDS011;41754;51.498;7.540;2023-11-21T12:07:01;30.42;;;21.10;;
16189;SDS011;41754;51.498;7.540;2023-11-21T12:09:31;32.10;;;20.95;;
16189;SDS011;41754;51.498;7.540;2023-11-21T12:12:01;24.05;;;18.23;;
16189;SDS011;41754;51.498;7.540;2023-11-21T12:14:30;27.02;;;18.08;;
16189;SDS011;41754;51.498;7.540;2023-11-21T12:16:58;25.35;;;18.67;;
16189;SDS011;41754;51.498;7.540;2023-11-21T12:19:26;22.85;;;16.70;;
16189;SDS011;41754;51.498;7.540;2023-11-21T12:21:54;24.63;;;17.27;;
16189;SDS011;41754;51.498;7.540;2023-11-21T12:24:23;21.23;;;14.63;;
16189;SDS011;41754;51.498;7.540;2023-11-21T12:26:51;19.58;;;13.50;;
16189;SDS011;41754;51.498;7.540;2023-11-21T12:29:20;18.73;;;13.15;;
16189;SDS011;41754;51.498;7.540;2023-11-21T12:31:48;19.42;;;13.35;;
16189;SDS011;41754;51.498;7.540;2023-11-21T12:34:16;18.88;;;13.88;;
16189;SDS011;41754;51.498;7.540;2023-11-21T12:36:44;20.67;;;15.48;;
16189;SDS011;41754;51.498;7.540;2023-11-21T12:39:13;21.33;;;15.95;;
16189;SDS011;41754;51.498;7.540;2023-11-21T12:41:41;20.50;;;15.57;;
16189;SDS011;41754;51.498;7.540;2023-11-21T12:44:09;27.13;;;20.42;;
16189;SDS011;41754;51.498;7.540;2023-11-21T12:46:43;19.45;;;15.35;;
16189;SDS011;41754;51.498;7.540;2023-11-21T12:49:13;17.85;;;13.85;;
16189;SDS011;41754;51.498;7.540;2023-11-21T12:51:44;19.25;;;13.77;;
16189;SDS011;41754;51.498;7.540;2023-11-21T12:54:13;19.58;;;14.60;;
16189;SDS011;41754;51.498;7.540;2023-11-21T12:56:44;20.17;;;14.77;;
16189;SDS011;41754;51.498;7.540;2023-11-21T12:59:15;16.70;;;13.38;;
16189;SDS011;41754;51.498;7.540;2023-11-21T13:01:46;19.25;;;13.80;;
16189;SDS011;41754;51.498;7.540;2023-11-21T13:04:17;19.60;;;14.90;;
16189;SDS011;41754;51.498;7.540;2023-11-21T13:06:45;18.92;;;14.73;;
16189;SDS011;41754;51.498;7.540;2023-11-21T13:09:13;17.77;;;14.15;;
16189;SDS011;41754;51.498;7.540;2023-11-21T13:11:48;18.83;;;14.40;;
16189;SDS011;41754;51.498;7.540;2023-11-21T13:14:15;18.88;;;13.55;;
16189;SDS011;41754;51.498;7.540;2023-11-21T13:16:45;16.60;;;13.40;;
16189;SDS011;41754;51.498;7.540;2023-11-21T13:19:13;18.10;;;14.30;;
16189;SDS011;41754;51.498;7.540;2023-11-21T13:21:41;16.27;;;13.20;;
16189;SDS011;41754;51.498;7.540;2023-11-21T13:24:10;17.98;;;13.35;;
16189;SDS011;41754;51.498;7.540;2023-11-21T13:26:38;17.00;;;13.10;;
16189;SDS011;41754;51.498;7.540;2023-11-21T13:29:07;17.88;;;13.80;;
16189;SDS011;41754;51.498;7.540;2023-11-21T13:31:35;16.10;;;13.25;;
16189;SDS011;41754;51.498;7.540;2023-11-21T13:34:05;15.65;;;12.82;;
16189;SDS011;41754;51.498;7.540;2023-11-21T13:36:35;16.33;;;12.88;;
16189;SDS011;41754;51.498;7.540;2023-11-21T13:39:03;17.75;;;12.82;;
16189;SDS011;41754;51.498;7.540;2023-11-21T13:41:34;16.48;;;12.90;;
16189;SDS011;41754;51.498;7.540;2023-11-21T13:44:05;15.88;;;12.52;;
16189;SDS011;41754;51.498;7.540;2023-11-21T13:46:42;15.13;;;11.80;;
16189;SDS011;41754;51.498;7.540;2023-11-21T13:49:14;15.35;;;11.95;;
16189;SDS011;41754;51.498;7.540;2023-11-21T13:51:42;12.80;;;10.50;;
16189;SDS011;41754;51.498;7.540;2023-11-21T13:54:12;13.68;;;10.35;;
16189;SDS011;41754;51.498;7.540;2023-11-21T13:56:41;15.90;;;10.60;;
16189;SDS011;41754;51.498;7.540;2023-11-21T13:59:11;13.52;;;10.38;;
16189;SDS011;41754;51.498;7.540;2023-11-21T14:01:47;14.43;;;10.80;;
16189;SDS011;41754;51.498;7.540;2023-11-21T14:04:24;12.43;;;9.45;;
16189;SDS011;41754;51.498;7.540;2023-11-21T14:07:13;16.98;;;9.77;;
16189;SDS011;41754;51.498;7.540;2023-11-21T14:09:52;13.85;;;10.25;;
16189;SDS011;41754;51.498;7.540;2023-11-21T14:12:21;11.40;;;9.32;;
16189;SDS011;41754;51.498;7.540;2023-11-21T14:14:48;12.15;;;8.95;;
16189;SDS011;41754;51.498;7.540;2023-11-21T14:17:16;12.95;;;10.05;;
16189;SDS011;41754;51.498;7.540;2023-11-21T14:19:46;13.50;;;10.02;;
16189;SDS011;41754;51.498;7.540;2023-11-21T14:22:15;14.38;;;11.50;;
16189;SDS011;41754;51.498;7.540;2023-11-21T14:24:43;12.32;;;10.02;;
16189;SDS011;41754;51.498;7.540;2023-11-21T14:27:13;10.63;;;9.40;;
16189;SDS011;41754;51.498;7.540;2023-11-21T14:29:42;11.05;;;8.77;;
16189;SDS011;41754;51.498;7.540;2023-11-21T14:32:11;17.35;;;13.48;;
16189;SDS011;41754;51.498;7.540;2023-11-21T14:34:41;9.70;;;8.70;;
16189;SDS011;41754;51.498;7.540;2023-11-21T14:37:13;8.00;;;7.20;;
16189;SDS011;41754;51.498;7.540;2023-11-21T14:39:41;6.35;;;5.75;;